Terminal Aerodrome Forecast
Issued by NWS

Home | Current Version | Previous Version | Text Only | Print | Product List | Glossary On
Versions: 1 2 3 4 5 6 7 8 9 10 11 12 13 14 15 16 17
000
FTUS46 KPDT 211100
TAFBDN
TAF
KBDN 211120Z 2112/2212 21005KT P6SM SCT250
     FM211800 33008KT P6SM SCT090 BKN250
     FM220600 21006KT P6SM SCT090 BKN250=

USA.gov is the U.S. government's official web portal to all federal, state and local government web resources and services.